Time;durP1;ratioP1;P1;durP2;ratioP2;P2;SDS_P1;SDS_P2;PMS_P1;PMS_P2;Temp;Humidity;BMP_temperature;BMP_pressure;BME280_temperature;BME280_humidity;BME280_pressure;Samples;Min_cycle;Max_cycle;Signal;HPM_P1;HPM_P2
2024/02/19 00:01:42;;;;;;;5.40;2.93;;;8.80;99.90;;;;;;5061578;28;20449;-73
2024/02/19 00:04:08;;;;;;;3.20;2.50;;;8.80;99.90;;;;;;5048001;28;20833;-74
2024/02/19 00:06:34;;;;;;;10.67;4.13;;;8.80;99.90;;;;;;5046500;28;20222;-73
2024/02/19 00:09:01;;;;;;;6.73;4.27;;;8.80;99.90;;;;;;5046469;28;20236;-73
2024/02/19 00:11:26;;;;;;;6.83;4.13;;;8.90;99.90;;;;;;5029517;28;20461;-74
2024/02/19 00:13:52;;;;;;;9.53;4.17;;;8.90;99.90;;;;;;5042716;28;20447;-73
2024/02/19 00:16:19;;;;;;;3.67;3.20;;;8.90;99.90;;;;;;5046887;28;20216;-73
2024/02/19 00:18:45;;;;;;;7.73;4.67;;;8.90;99.90;;;;;;5046286;28;20307;-72
2024/02/19 00:21:11;;;;;;;5.47;3.43;;;8.90;99.90;;;;;;5046943;28;20451;-74
2024/02/19 00:23:37;;;;;;;4.70;3.37;;;8.90;99.90;;;;;;5048894;28;20454;-74
2024/02/19 00:26:03;;;;;;;5.23;3.77;;;8.90;99.90;;;;;;5044561;28;20365;-72
2024/02/19 00:28:29;;;;;;;7.70;3.70;;;8.90;99.90;;;;;;5046052;28;20273;-74
2024/02/19 00:30:55;;;;;;;4.90;3.10;;;8.90;99.90;;;;;;5048798;28;20514;-72
2024/02/19 00:33:23;;;;;;;4.60;3.33;;;8.90;99.90;;;;;;5043195;28;20525;-73
2024/02/19 00:35:49;;;;;;;6.37;3.63;;;8.90;99.90;;;;;;5042382;28;20489;-72
2024/02/19 00:38:15;;;;;;;7.13;4.33;;;8.90;99.90;;;;;;5043352;28;20474;-73
2024/02/19 00:40:41;;;;;;;5.93;3.30;;;8.90;99.90;;;;;;5043013;28;20738;-74
2024/02/19 00:43:06;;;;;;;5.30;3.70;;;9.00;99.90;;;;;;5048955;28;20279;-74
2024/02/19 00:45:32;;;;;;;7.10;3.33;;;9.00;99.90;;;;;;5048560;28;20442;-74
2024/02/19 00:47:58;;;;;;;4.97;2.50;;;9.00;99.90;;;;;;5047326;28;20773;-73
2024/02/19 00:50:23;;;;;;;2.50;2.30;;;9.00;99.90;;;;;;5049199;28;20282;-74
2024/02/19 00:52:49;;;;;;;4.53;1.83;;;9.00;99.90;;;;;;5046072;28;20220;-73
2024/02/19 00:55:14;;;;;;;3.50;2.60;;;9.00;99.90;;;;;;5046853;28;20216;-74
2024/02/19 00:57:40;;;;;;;2.33;1.80;;;9.00;99.90;;;;;;5027626;28;20227;-73
2024/02/19 01:00:06;;;;;;;2.73;1.80;;;9.00;99.90;;;;;;5040050;28;20281;-74
2024/02/19 01:02:32;;;;;;;3.27;2.20;;;9.00;99.90;;;;;;5044835;28;20274;-74
2024/02/19 01:04:58;;;;;;;2.53;2.30;;;9.00;99.90;;;;;;5030769;28;20866;-74
2024/02/19 01:07:25;;;;;;;2.23;1.70;;;9.00;99.90;;;;;;5044517;28;20208;-74
2024/02/19 01:09:50;;;;;;;1.73;1.63;;;9.00;99.90;;;;;;5059350;28;20481;-74
2024/02/19 01:12:16;;;;;;;1.77;1.60;;;9.00;99.90;;;;;;5030860;28;20457;-74
2024/02/19 01:14:42;;;;;;;3.10;1.90;;;9.00;99.90;;;;;;5045708;28;20219;-73
2024/02/19 01:17:08;;;;;;;2.60;1.80;;;9.00;99.90;;;;;;5046983;28;20742;-74
2024/02/19 01:19:34;;;;;;;6.10;2.33;;;9.00;99.90;;;;;;5044507;28;21011;-74
2024/02/19 01:22:01;;;;;;;2.07;1.53;;;9.00;99.90;;;;;;5013953;28;20466;-73
2024/02/19 01:24:26;;;;;;;1.80;1.70;;;9.00;99.90;;;;;;5043366;28;20494;-74
2024/02/19 01:26:52;;;;;;;2.27;1.97;;;9.00;99.90;;;;;;5038336;28;20494;-74
2024/02/19 01:29:18;;;;;;;4.93;2.53;;;9.00;99.90;;;;;;5027400;28;20227;-72
2024/02/19 01:31:45;;;;;;;5.90;2.10;;;9.00;99.90;;;;;;5039021;28;20255;-74
2024/02/19 01:34:11;;;;;;;2.00;1.90;;;9.00;99.90;;;;;;5042264;28;20477;-73
2024/02/19 01:36:37;;;;;;;2.33;2.10;;;9.00;99.90;;;;;;5035795;28;20829;-74
2024/02/19 01:39:03;;;;;;;2.70;1.90;;;9.10;99.90;;;;;;5042106;28;20470;-74
2024/02/19 01:41:29;;;;;;;3.30;2.03;;;9.10;99.90;;;;;;5041310;28;20474;-74
2024/02/19 01:43:54;;;;;;;2.37;2.10;;;9.10;99.90;;;;;;5032904;28;20477;-73
2024/02/19 01:46:21;;;;;;;2.80;2.30;;;9.10;99.90;;;;;;5037845;28;20218;-74
2024/02/19 01:48:47;;;;;;;3.63;2.37;;;9.10;99.90;;;;;;5036168;28;20231;-73
2024/02/19 01:51:16;;;;;;;3.63;2.67;;;9.10;99.90;;;;;;5036851;28;20473;-74
2024/02/19 01:53:43;;;;;;;3.97;2.67;;;9.10;99.90;;;;;;5035850;28;20303;-73
2024/02/19 01:56:09;;;;;;;3.90;2.63;;;9.10;99.90;;;;;;5039379;28;20466;-74
2024/02/19 01:58:37;;;;;;;3.00;2.37;;;9.20;99.90;;;;;;5036659;28;20462;-74
2024/02/19 02:01:04;;;;;;;3.80;2.80;;;9.20;99.90;;;;;;5035789;28;20223;-74
2024/02/19 02:03:32;;;;;;;14.27;3.20;;;9.20;99.90;;;;;;5026913;28;20519;-74
2024/02/19 02:05:59;;;;;;;2.83;2.53;;;9.20;99.90;;;;;;5037050;28;20522;-74
2024/02/19 02:08:25;;;;;;;3.07;2.30;;;9.20;99.90;;;;;;5025247;28;20462;-74
2024/02/19 02:10:50;;;;;;;2.40;2.20;;;9.20;99.90;;;;;;5035367;28;20484;-74
2024/02/19 02:13:18;;;;;;;4.40;2.17;;;9.20;99.90;;;;;;5043613;28;20239;-74
2024/02/19 02:15:44;;;;;;;2.40;2.10;;;9.20;99.90;;;;;;5045888;28;20751;-74
2024/02/19 02:18:12;;;;;;;3.07;2.17;;;9.20;99.90;;;;;;5046410;28;20454;-74
2024/02/19 02:20:39;;;;;;;2.30;1.93;;;9.20;99.90;;;;;;5043505;28;20612;-75
2024/02/19 02:23:05;;;;;;;2.40;2.20;;;9.20;99.90;;;;;;5045218;28;20492;-74
2024/02/19 02:25:33;;;;;;;6.53;2.60;;;9.20;99.90;;;;;;5045369;28;20505;-74
2024/02/19 02:27:59;;;;;;;2.83;2.20;;;9.20;99.90;;;;;;5044292;28;20254;-74
2024/02/19 02:30:25;;;;;;;3.73;2.50;;;9.20;99.90;;;;;;5047391;28;20469;-74
2024/02/19 02:32:55;;;;;;;4.07;2.40;;;9.20;99.90;;;;;;5040924;28;20524;-72
2024/02/19 02:35:25;;;;;;;2.13;1.93;;;9.20;99.90;;;;;;5056041;28;20208;-74
2024/02/19 02:37:51;;;;;;;4.17;2.10;;;9.20;99.90;;;;;;5038467;28;20458;-74
2024/02/19 02:40:16;;;;;;;2.60;1.70;;;9.20;99.90;;;;;;5045050;28;20869;-73
2024/02/19 02:42:43;;;;;;;1.87;1.47;;;9.20;99.90;;;;;;5044289;28;20227;-75
2024/02/19 02:45:09;;;;;;;2.80;1.77;;;9.20;99.90;;;;;;5047745;28;20266;-74
2024/02/19 02:47:35;;;;;;;1.70;1.60;;;9.20;99.90;;;;;;5048762;28;20477;-74
2024/02/19 02:50:00;;;;;;;3.13;1.73;;;9.20;99.90;;;;;;5025324;28;20223;-74
2024/02/19 02:52:26;;;;;;;1.50;1.40;;;9.20;99.90;;;;;;5044312;28;20250;-74
2024/02/19 02:54:52;;;;;;;1.70;1.60;;;9.20;99.90;;;;;;5038629;28;20231;-74
2024/02/19 02:57:17;;;;;;;2.67;1.67;;;9.20;99.90;;;;;;5048401;28;20273;-74
2024/02/19 02:59:43;;;;;;;1.57;1.40;;;9.20;99.90;;;;;;5042258;28;20216;-74
2024/02/19 03:02:09;;;;;;;1.60;1.50;;;9.20;99.90;;;;;;5047897;28;20272;-74
2024/02/19 03:04:34;;;;;;;1.93;0.93;;;9.10;99.90;;;;;;5044684;28;20230;-74
2024/02/19 03:07:00;;;;;;;1.40;1.30;;;9.10;99.90;;;;;;5044443;28;20246;-73
2024/02/19 03:09:26;;;;;;;1.83;1.07;;;9.10;99.90;;;;;;5045786;28;20231;-75
2024/02/19 03:11:51;;;;;;;1.40;1.20;;;9.10;99.90;;;;;;5046360;28;20220;-74
2024/02/19 03:14:17;;;;;;;3.90;1.23;;;9.10;99.90;;;;;;5047427;28;20346;-73
2024/02/19 03:16:43;;;;;;;1.20;1.10;;;9.10;99.90;;;;;;5044370;28;20216;-74
2024/02/19 03:19:13;;;;;;;2.73;1.50;;;9.10;99.90;;;;;;5042547;28;20692;-73
2024/02/19 03:21:40;;;;;;;2.57;1.33;;;9.10;99.90;;;;;;5022804;28;20504;-75
2024/02/19 03:24:07;;;;;;;4.67;1.10;;;9.10;99.90;;;;;;5040997;28;21032;-72
2024/02/19 03:26:33;;;;;;;0.90;0.90;;;9.10;99.90;;;;;;5043134;28;20458;-74
2024/02/19 03:28:59;;;;;;;3.50;1.47;;;9.10;99.90;;;;;;5039832;28;20473;-74
2024/02/19 03:31:24;;;;;;;2.93;1.07;;;9.10;99.90;;;;;;5044621;28;20458;-74
2024/02/19 03:33:50;;;;;;;1.27;1.17;;;9.10;99.90;;;;;;5020340;28;20226;-74
2024/02/19 03:36:16;;;;;;;0.93;0.93;;;9.10;99.90;;;;;;5048001;28;20216;-74
2024/02/19 03:38:42;;;;;;;1.00;0.90;;;9.10;99.90;;;;;;5037789;28;20314;-74
2024/02/19 03:41:08;;;;;;;2.60;1.10;;;9.10;99.90;;;;;;5043531;28;20460;-75
2024/02/19 03:43:34;;;;;;;2.60;1.47;;;9.10;99.90;;;;;;5044035;28;20532;-74
2024/02/19 03:46:05;;;;;;;1.20;1.10;;;9.10;99.90;;;;;;5044045;28;20230;-74
2024/02/19 03:48:33;;;;;;;5.33;1.23;;;9.10;99.90;;;;;;5047689;28;20466;-74
2024/02/19 03:50:59;;;;;;;2.30;0.80;;;9.20;99.90;;;;;;5039659;28;20458;-74
2024/02/19 03:53:25;;;;;;;1.83;1.40;;;9.20;99.90;;;;;;5041010;28;20443;-74
2024/02/19 03:55:50;;;;;;;2.30;1.33;;;9.20;99.90;;;;;;5032156;28;20216;-74
2024/02/19 03:58:16;;;;;;;1.10;0.90;;;9.20;99.90;;;;;;5039962;28;20212;-74
2024/02/19 04:00:42;;;;;;;1.87;1.10;;;9.20;99.90;;;;;;5023160;28;20661;-75
2024/02/19 04:03:07;;;;;;;1.77;1.23;;;9.20;99.90;;;;;;5041979;28;20268;-74
2024/02/19 04:05:33;;;;;;;1.00;0.90;;;9.30;99.90;;;;;;5040971;28;20212;-72
2024/02/19 04:07:59;;;;;;;1.33;0.80;;;9.30;99.90;;;;;;5054213;28;20644;-74
2024/02/19 04:10:24;;;;;;;1.40;0.57;;;9.30;99.90;;;;;;5038582;28;20281;-74
2024/02/19 04:12:50;;;;;;;0.70;0.50;;;9.20;99.90;;;;;;5035972;28;20701;-74
2024/02/19 04:15:16;;;;;;;1.13;0.73;;;9.30;99.90;;;;;;5027308;28;20219;-74
2024/02/19 04:17:41;;;;;;;2.13;0.90;;;9.20;99.90;;;;;;5040548;28;20218;-73
2024/02/19 04:20:07;;;;;;;4.83;0.90;;;9.20;99.90;;;;;;5043670;28;20744;-73
2024/02/19 04:22:33;;;;;;;1.93;0.77;;;9.20;99.90;;;;;;5042811;28;20224;-74
2024/02/19 04:25:00;;;;;;;0.80;0.60;;;9.20;99.90;;;;;;5021240;28;20461;-74
2024/02/19 04:27:25;;;;;;;0.77;0.77;;;9.20;99.90;;;;;;5039949;28;20464;-74
2024/02/19 04:29:51;;;;;;;1.47;0.70;;;9.20;99.90;;;;;;5036667;28;20478;-74
2024/02/19 04:32:16;;;;;;;0.70;0.70;;;9.10;99.90;;;;;;5038110;28;20228;-75
2024/02/19 04:34:42;;;;;;;1.53;0.87;;;9.10;99.90;;;;;;5040767;28;20250;-74
2024/02/19 04:37:08;;;;;;;2.20;0.70;;;9.20;99.90;;;;;;5039788;28;20705;-74
2024/02/19 04:39:34;;;;;;;3.03;1.20;;;9.10;99.90;;;;;;5040106;28;20223;-74
2024/02/19 04:42:03;;;;;;;1.80;1.10;;;9.10;99.90;;;;;;5039582;28;20235;-74
2024/02/19 04:44:29;;;;;;;0.67;0.60;;;9.10;99.90;;;;;;5041906;28;20482;-74
2024/02/19 04:46:56;;;;;;;0.60;0.60;;;9.10;99.90;;;;;;5037014;28;20534;-74
2024/02/19 04:49:21;;;;;;;2.73;0.67;;;9.00;99.90;;;;;;5049697;28;20812;-74
2024/02/19 04:51:47;;;;;;;0.60;0.60;;;9.00;99.90;;;;;;5024023;28;20458;-74
2024/02/19 04:54:13;;;;;;;3.87;0.67;;;9.00;99.90;;;;;;5040357;28;20500;-74
2024/02/19 04:56:39;;;;;;;5.20;0.70;;;9.00;99.90;;;;;;5039318;28;20611;-75
2024/02/19 04:59:04;;;;;;;1.80;1.17;;;9.00;99.90;;;;;;5040382;28;20235;-73
2024/02/19 05:01:31;;;;;;;1.90;0.60;;;9.00;99.90;;;;;;5041209;28;20265;-74
2024/02/19 05:04:00;;;;;;;4.30;1.10;;;9.00;99.90;;;;;;5036687;28;20235;-73
2024/02/19 05:06:27;;;;;;;0.90;0.73;;;8.90;99.90;;;;;;5043084;28;20454;-74
2024/02/19 05:08:53;;;;;;;1.07;0.63;;;8.90;99.90;;;;;;5035084;28;20470;-74
2024/02/19 05:11:19;;;;;;;0.87;0.87;;;8.90;99.90;;;;;;5045201;28;20504;-72
2024/02/19 05:13:44;;;;;;;0.83;0.83;;;8.90;99.90;;;;;;5044220;28;20260;-74
2024/02/19 05:16:10;;;;;;;3.73;1.20;;;8.90;99.90;;;;;;5056985;28;20269;-74
2024/02/19 05:18:36;;;;;;;2.23;1.07;;;8.90;99.90;;;;;;5030464;28;20298;-74
2024/02/19 05:21:02;;;;;;;1.47;1.00;;;8.80;99.90;;;;;;5041363;28;20238;-74
2024/02/19 05:23:31;;;;;;;1.90;1.00;;;8.80;99.90;;;;;;5043601;28;20298;-74
2024/02/19 05:25:57;;;;;;;2.60;1.30;;;8.80;99.90;;;;;;5046821;28;20500;-74
2024/02/19 05:28:23;;;;;;;0.87;0.83;;;8.90;99.90;;;;;;5047058;28;20451;-74
2024/02/19 05:30:49;;;;;;;2.07;0.73;;;8.90;99.90;;;;;;5046752;28;21056;-74
2024/02/19 05:33:18;;;;;;;5.63;1.17;;;8.80;99.90;;;;;;5046037;28;20223;-74
2024/02/19 05:35:45;;;;;;;2.00;1.00;;;8.70;99.90;;;;;;5043604;28;20584;-74
2024/02/19 05:38:12;;;;;;;0.77;0.73;;;8.70;99.90;;;;;;5045123;28;20461;-73
2024/02/19 05:40:41;;;;;;;2.53;1.13;;;8.70;99.90;;;;;;5048759;28;20462;-74
2024/02/19 05:43:07;;;;;;;2.53;1.30;;;8.60;99.90;;;;;;5045509;28;20974;-74
2024/02/19 05:45:32;;;;;;;2.20;1.13;;;8.60;99.90;;;;;;5045712;28;20455;-74
2024/02/19 05:47:59;;;;;;;2.40;1.10;;;8.60;99.90;;;;;;5032098;28;20227;-72
2024/02/19 05:50:27;;;;;;;1.93;1.23;;;8.60;99.90;;;;;;5048087;28;20643;-74
2024/02/19 05:52:52;;;;;;;3.33;1.23;;;8.60;99.90;;;;;;5044462;28;20454;-73
2024/02/19 05:55:18;;;;;;;1.33;1.07;;;8.70;99.90;;;;;;5042692;28;20886;-74
2024/02/19 05:57:43;;;;;;;2.10;1.13;;;8.70;99.90;;;;;;5046360;28;20216;-74
2024/02/19 06:00:13;;;;;;;1.37;1.27;;;8.70;99.90;;;;;;5047110;28;20242;-73
2024/02/19 06:02:42;;;;;;;1.23;1.13;;;8.70;99.90;;;;;;5044449;28;20223;-75
2024/02/19 06:05:11;;;;;;;5.30;1.40;;;8.70;99.90;;;;;;5042560;28;20814;-73
2024/02/19 06:07:36;;;;;;;2.30;1.10;;;8.80;99.90;;;;;;5045403;28;20454;-73
2024/02/19 06:10:04;;;;;;;1.57;1.20;;;8.80;99.90;;;;;;5045541;28;20454;-73
2024/02/19 06:12:30;;;;;;;3.87;1.60;;;8.70;99.90;;;;;;5046384;28;20220;-74
2024/02/19 06:14:55;;;;;;;1.20;1.10;;;8.70;99.90;;;;;;5044451;28;20469;-73
2024/02/19 06:17:21;;;;;;;2.10;1.33;;;8.70;99.90;;;;;;5029361;28;20234;-73
2024/02/19 06:19:46;;;;;;;2.13;1.03;;;8.70;99.90;;;;;;5029534;28;20645;-74
2024/02/19 06:22:12;;;;;;;1.93;1.63;;;8.70;99.90;;;;;;5046515;28;20699;-73
2024/02/19 06:24:38;;;;;;;4.33;1.40;;;8.70;99.90;;;;;;5046776;28;20721;-73
2024/02/19 06:27:06;;;;;;;1.73;1.00;;;8.70;99.90;;;;;;5044346;28;20313;-73
2024/02/19 06:29:33;;;;;;;2.77;1.50;;;8.70;99.90;;;;;;5042943;28;20305;-74
2024/02/19 06:31:59;;;;;;;3.40;1.20;;;8.80;99.90;;;;;;5043409;28;20508;-74
2024/02/19 06:34:26;;;;;;;2.27;1.30;;;8.70;99.90;;;;;;5027978;28;20544;-74
2024/02/19 06:36:52;;;;;;;5.93;1.30;;;8.80;99.90;;;;;;5046042;28;20254;-74
2024/02/19 06:39:19;;;;;;;1.80;0.80;;;8.80;99.90;;;;;;5042967;28;20591;-74
2024/02/19 06:41:46;;;;;;;3.43;1.37;;;8.80;99.90;;;;;;5048001;28;20455;-75
2024/02/19 06:44:11;;;;;;;2.00;0.90;;;8.80;99.90;;;;;;5046794;28;20485;-75
2024/02/19 06:46:37;;;;;;;0.80;0.80;;;8.70;99.90;;;;;;5043647;28;20524;-74
2024/02/19 06:49:03;;;;;;;1.63;0.90;;;8.70;99.90;;;;;;5046155;28;20709;-74
2024/02/19 06:51:29;;;;;;;0.70;0.70;;;8.80;99.90;;;;;;5028390;28;20211;-74
2024/02/19 06:53:55;;;;;;;0.97;0.77;;;8.80;99.90;;;;;;5045888;28;20455;-73
2024/02/19 06:56:20;;;;;;;3.17;0.80;;;8.70;99.90;;;;;;5044492;28;20223;-74
2024/02/19 06:58:47;;;;;;;3.13;0.83;;;8.70;99.90;;;;;;5042488;28;20223;-75
2024/02/19 07:01:14;;;;;;;2.40;0.93;;;8.80;99.90;;;;;;5046630;28;20820;-74
2024/02/19 07:03:40;;;;;;;1.30;0.60;;;8.70;99.90;;;;;;5045871;28;20222;-75
2024/02/19 07:06:06;;;;;;;3.50;1.13;;;8.70;99.90;;;;;;5045417;28;20466;-74
2024/02/19 07:08:32;;;;;;;0.93;0.93;;;8.70;99.90;;;;;;5032044;28;20800;-74
2024/02/19 07:10:58;;;;;;;3.40;1.10;;;8.80;99.90;;;;;;5050841;28;20468;-74
2024/02/19 07:13:23;;;;;;;1.37;1.13;;;8.80;99.90;;;;;;5063205;28;20709;-74
2024/02/19 07:15:49;;;;;;;2.40;0.90;;;8.80;99.90;;;;;;5033220;28;20231;-74
2024/02/19 07:18:14;;;;;;;5.60;1.20;;;8.70;99.90;;;;;;5032397;28;20334;-74
2024/02/19 07:20:40;;;;;;;5.67;1.50;;;8.80;99.90;;;;;;5057864;28;20251;-74
2024/02/19 07:23:06;;;;;;;1.07;0.80;;;8.70;99.90;;;;;;5039659;28;20274;-74
2024/02/19 07:25:31;;;;;;;0.93;0.90;;;8.70;99.90;;;;;;5026721;28;20312;-74
2024/02/19 07:27:57;;;;;;;2.20;1.00;;;8.70;99.90;;;;;;5039814;28;20215;-74
2024/02/19 07:30:23;;;;;;;3.97;1.07;;;8.70;99.90;;;;;;5024525;28;20223;-74
2024/02/19 07:32:49;;;;;;;2.40;1.17;;;8.70;99.90;;;;;;5042335;28;20218;-75
2024/02/19 07:35:14;;;;;;;3.13;1.30;;;8.70;99.90;;;;;;5044878;28;20302;-74
2024/02/19 07:37:41;;;;;;;2.07;1.23;;;8.70;99.90;;;;;;5043538;28;20638;-74
2024/02/19 07:40:07;;;;;;;1.30;1.20;;;8.70;99.90;;;;;;5053165;28;20236;-74
2024/02/19 07:42:33;;;;;;;4.20;1.83;;;8.60;99.90;;;;;;5041861;28;20457;-74
2024/02/19 07:44:58;;;;;;;2.83;1.67;;;8.60;99.90;;;;;;5035159;28;20454;-74
2024/02/19 07:47:24;;;;;;;1.63;0.83;;;8.60;99.90;;;;;;5041682;28;20679;-74
2024/02/19 07:49:49;;;;;;;1.13;1.03;;;8.60;99.90;;;;;;5034486;28;20231;-75
2024/02/19 07:52:15;;;;;;;3.57;2.00;;;8.60;99.90;;;;;;5043437;28;20216;-74
2024/02/19 07:54:41;;;;;;;6.77;2.97;;;8.60;99.90;;;;;;5026859;28;20216;-74
2024/02/19 07:57:07;;;;;;;7.03;2.27;;;8.60;99.90;;;;;;5039284;28;20250;-74
2024/02/19 07:59:33;;;;;;;13.90;2.73;;;8.60;99.90;;;;;;5042439;28;20312;-74
2024/02/19 08:01:59;;;;;;;1.90;1.10;;;8.70;99.90;;;;;;5025586;28;20889;-74
2024/02/19 08:04:27;;;;;;;1.93;1.00;;;8.70;99.90;;;;;;5041297;28;20216;-74
2024/02/19 08:06:53;;;;;;;1.00;0.90;;;8.80;99.90;;;;;;5038159;28;20804;-73
2024/02/19 08:09:19;;;;;;;1.60;1.00;;;8.90;99.90;;;;;;5041374;28;20989;-74
2024/02/19 08:11:45;;;;;;;0.87;0.80;;;8.90;99.90;;;;;;5021912;28;20495;-74
2024/02/19 08:14:10;;;;;;;1.50;0.90;;;9.10;99.90;;;;;;5045868;28;20220;-74
2024/02/19 08:16:36;;;;;;;1.43;0.90;;;9.20;99.90;;;;;;5041415;28;20327;-74
2024/02/19 08:19:02;;;;;;;4.40;1.03;;;9.20;99.90;;;;;;5035729;28;20265;-74
2024/02/19 08:21:27;;;;;;;1.17;0.87;;;9.30;99.90;;;;;;5039385;28;20800;-74
2024/02/19 08:23:53;;;;;;;3.23;0.80;;;9.40;99.90;;;;;;5037724;28;20649;-75
2024/02/19 08:26:19;;;;;;;2.23;0.83;;;9.40;99.90;;;;;;5040905;28;20222;-74
2024/02/19 08:28:46;;;;;;;2.23;1.50;;;9.50;99.90;;;;;;5035924;28;20219;-74
2024/02/19 08:31:11;;;;;;;2.73;1.73;;;9.50;99.90;;;;;;5040432;28;20455;-75
2024/02/19 08:33:37;;;;;;;1.67;1.50;;;9.60;99.90;;;;;;5039673;28;20952;-74
2024/02/19 08:36:04;;;;;;;5.80;2.90;;;9.60;99.90;;;;;;5034884;28;20757;-75
2024/02/19 08:38:30;;;;;;;2.40;2.20;;;9.60;99.90;;;;;;5038641;28;20564;-74
2024/02/19 08:40:56;;;;;;;1.90;1.60;;;9.60;99.90;;;;;;5023145;28;20451;-74
2024/02/19 08:43:22;;;;;;;4.30;2.37;;;9.70;99.90;;;;;;5040637;28;20962;-75
2024/02/19 08:45:47;;;;;;;3.03;2.50;;;9.70;99.90;;;;;;5042183;28;20275;-74
2024/02/19 08:48:13;;;;;;;1.90;1.50;;;9.80;99.90;;;;;;5024550;28;20227;-74
2024/02/19 08:50:38;;;;;;;2.10;1.60;;;9.80;99.90;;;;;;5025281;28;20334;-75
2024/02/19 08:53:04;;;;;;;1.60;1.50;;;9.80;99.90;;;;;;5056432;28;20281;-74
2024/02/19 08:55:31;;;;;;;3.07;2.67;;;9.80;99.90;;;;;;5041497;28;20330;-74
2024/02/19 08:57:56;;;;;;;6.20;2.50;;;9.80;99.90;;;;;;5040671;28;20220;-75
2024/02/19 09:00:23;;;;;;;2.00;1.90;;;9.80;99.90;;;;;;5024744;28;20460;-74
2024/02/19 09:02:49;;;;;;;1.00;0.73;;;9.80;99.90;;;;;;5024260;28;20215;-75
2024/02/19 09:05:15;;;;;;;1.13;1.03;;;9.80;99.90;;;;;;5039690;28;20454;-74
2024/02/19 09:07:40;;;;;;;2.07;1.10;;;9.80;99.90;;;;;;5042476;28;20247;-73
2024/02/19 09:10:06;;;;;;;0.93;0.73;;;9.70;99.90;;;;;;5037305;28;20994;-74
2024/02/19 09:12:32;;;;;;;2.20;0.90;;;9.80;99.90;;;;;;5037019;28;20207;-74
2024/02/19 09:14:58;;;;;;;1.47;0.97;;;9.80;99.90;;;;;;5038633;28;21003;-75
2024/02/19 09:17:25;;;;;;;1.20;0.90;;;9.80;99.90;;;;;;5043827;28;20751;-74
2024/02/19 09:19:51;;;;;;;1.00;0.90;;;9.80;99.90;;;;;;5036029;28;20470;-74
2024/02/19 09:22:16;;;;;;;1.83;0.90;;;9.80;99.90;;;;;;5039925;28;20515;-74
2024/02/19 09:24:46;;;;;;;5.77;1.10;;;9.80;99.90;;;;;;5039068;28;20216;-74
2024/02/19 09:27:12;;;;;;;1.17;1.07;;;9.80;99.90;;;;;;5038343;28;20255;-74
2024/02/19 09:29:37;;;;;;;2.23;1.13;;;9.80;99.90;;;;;;5041198;28;20481;-75
2024/02/19 09:32:03;;;;;;;1.00;0.90;;;9.80;99.90;;;;;;5037832;28;20223;-74
2024/02/19 09:34:29;;;;;;;0.93;0.90;;;9.80;99.90;;;;;;5040320;28;20656;-74
2024/02/19 09:36:55;;;;;;;6.90;1.27;;;9.90;99.90;;;;;;5040616;28;20462;-74
2024/02/19 09:39:20;;;;;;;14.93;9.60;;;9.90;99.90;;;;;;5055479;28;20589;-74
2024/02/19 09:41:47;;;;;;;17.90;10.13;;;10.10;99.90;;;;;;5037553;28;20686;-75
2024/02/19 09:44:13;;;;;;;11.33;6.60;;;10.10;99.90;;;;;;5024773;28;20246;-74
2024/02/19 09:46:41;;;;;;;2.97;2.63;;;10.20;99.90;;;;;;5038350;28;20469;-74
2024/02/19 09:49:10;;;;;;;1.73;1.50;;;10.40;99.90;;;;;;5022866;28;20454;-74
2024/02/19 09:51:39;;;;;;;1.00;1.00;;;10.40;99.90;;;;;;5020575;28;20485;-73
2024/02/19 09:54:05;;;;;;;1.33;0.93;;;10.50;99.90;;;;;;5039611;28;20450;-75
2024/02/19 09:56:34;;;;;;;1.80;0.93;;;10.40;99.90;;;;;;5020455;28;20558;-75
2024/02/19 09:58:59;;;;;;;1.43;0.80;;;10.60;99.90;;;;;;5037981;28;20208;-73
2024/02/19 10:01:25;;;;;;;3.53;1.10;;;10.60;99.90;;;;;;5039306;28;21043;-75
2024/02/19 10:03:51;;;;;;;3.30;1.07;;;10.60;99.90;;;;;;5036902;28;20696;-75
2024/02/19 10:06:17;;;;;;;0.80;0.80;;;10.70;99.90;;;;;;5042541;28;20219;-75
2024/02/19 10:08:43;;;;;;;1.23;0.97;;;10.70;99.90;;;;;;5039169;28;20451;-74
2024/02/19 10:11:10;;;;;;;3.00;1.37;;;10.80;99.90;;;;;;5035423;28;20227;-72
2024/02/19 10:13:39;;;;;;;5.03;1.13;;;10.80;99.90;;;;;;5042245;28;20211;-75
2024/02/19 10:16:06;;;;;;;3.87;1.20;;;11.00;99.90;;;;;;5040249;28;20474;-75
2024/02/19 10:18:32;;;;;;;3.77;2.77;;;11.00;99.90;;;;;;5024384;28;21002;-75
2024/02/19 10:20:58;;;;;;;17.43;10.10;;;11.00;99.90;;;;;;5037970;28;20466;-75
2024/02/19 10:23:25;;;;;;;11.97;5.73;;;11.00;99.90;;;;;;5037091;28;20227;-75
2024/02/19 10:25:51;;;;;;;5.03;3.40;;;11.00;99.90;;;;;;5035264;28;20218;-75
2024/02/19 10:28:18;;;;;;;2.60;2.40;;;11.10;99.90;;;;;;5037021;28;20600;-75
2024/02/19 10:30:44;;;;;;;4.13;1.97;;;11.30;99.90;;;;;;5041084;28;20459;-74
2024/02/19 10:33:10;;;;;;;2.20;2.00;;;11.40;99.90;;;;;;5038447;28;20457;-75
2024/02/19 10:35:35;;;;;;;1.83;1.57;;;11.40;99.90;;;;;;5041507;28;20586;-75
2024/02/19 10:38:01;;;;;;;3.47;1.10;;;11.40;99.90;;;;;;5057136;28;20226;-74
2024/02/19 10:40:27;;;;;;;1.70;0.90;;;11.50;99.90;;;;;;5025896;28;20211;-75
2024/02/19 10:42:55;;;;;;;5.03;1.30;;;11.50;99.90;;;;;;5039978;28;20235;-75
2024/02/19 10:45:23;;;;;;;3.73;1.40;;;11.50;99.90;;;;;;5042626;28;20458;-73
2024/02/19 10:47:55;;;;;;;4.00;1.20;;;11.60;99.90;;;;;;5039729;28;20450;-75
2024/02/19 10:50:22;;;;;;;3.87;1.50;;;11.70;99.90;;;;;;5044857;28;20457;-75
2024/02/19 10:52:48;;;;;;;5.33;2.03;;;11.70;99.90;;;;;;5040682;28;20469;-75
2024/02/19 10:55:15;;;;;;;4.83;1.77;;;11.80;99.90;;;;;;5043654;28;20535;-74
2024/02/19 10:57:49;;;;;;;4.33;1.30;;;11.80;99.90;;;;;;5046764;28;20623;-75
2024/02/19 11:00:16;;;;;;;1.40;1.30;;;11.80;99.90;;;;;;5030937;28;20914;-75
2024/02/19 11:02:42;;;;;;;6.30;1.50;;;11.80;99.90;;;;;;5064782;28;20478;-75
2024/02/19 11:05:11;;;;;;;2.40;1.77;;;11.90;99.90;;;;;;5060681;28;20828;-74
2024/02/19 11:07:39;;;;;;;5.13;4.20;;;12.00;99.90;;;;;;5047212;28;20219;-75
2024/02/19 11:10:06;;;;;;;9.90;8.23;;;12.00;99.90;;;;;;5046789;28;25585;-74
2024/02/19 11:12:32;;;;;;;6.60;4.60;;;12.00;99.90;;;;;;5046781;28;20457;-74
2024/02/19 11:14:58;;;;;;;2.67;2.30;;;12.10;99.90;;;;;;5050353;28;20461;-74
2024/02/19 11:17:24;;;;;;;1.97;1.40;;;12.00;99.90;;;;;;5047260;28;20485;-74
2024/02/19 11:19:52;;;;;;;5.20;1.30;;;12.10;99.90;;;;;;5032459;28;20286;-75
2024/02/19 11:22:30;;;;;;;1.07;0.97;;;12.10;99.90;;;;;;5060206;28;20673;-75
2024/02/19 11:24:57;;;;;;;2.90;1.37;;;12.10;99.90;;;;;;5045325;28;20458;-75
2024/02/19 11:27:23;;;;;;;1.57;1.37;;;12.10;99.90;;;;;;5047500;28;20527;-73
2024/02/19 11:29:57;;;;;;;1.93;1.13;;;12.10;99.90;;;;;;5046164;28;20569;-75
2024/02/19 11:32:23;;;;;;;5.77;1.27;;;12.10;99.90;;;;;;5048399;28;20208;-74
2024/02/19 11:34:50;;;;;;;1.43;1.10;;;12.10;99.90;;;;;;5046712;28;20856;-75
2024/02/19 11:37:16;;;;;;;2.53;1.33;;;12.00;99.90;;;;;;5044566;28;20212;-74
2024/02/19 11:39:45;;;;;;;5.50;1.33;;;12.00;99.90;;;;;;5046652;28;20470;-75
2024/02/19 11:42:14;;;;;;;2.67;1.30;;;12.00;99.90;;;;;;5048588;28;20464;-74
2024/02/19 11:44:41;;;;;;;1.50;1.10;;;12.00;99.90;;;;;;5060322;28;20453;-75
2024/02/19 11:47:10;;;;;;;3.27;1.10;;;11.90;99.90;;;;;;5046337;28;20451;-72
2024/02/19 11:49:36;;;;;;;4.10;1.20;;;11.90;99.90;;;;;;5047420;28;20466;-75
2024/02/19 11:52:05;;;;;;;0.80;0.80;;;11.90;99.90;;;;;;5031939;28;20462;-74
2024/02/19 11:54:33;;;;;;;1.27;1.07;;;11.90;99.90;;;;;;5032097;28;20452;-74
2024/02/19 11:57:03;;;;;;;3.47;1.13;;;12.00;99.90;;;;;;5033029;28;20572;-75
2024/02/19 11:59:30;;;;;;;1.53;0.97;;;12.10;99.90;;;;;;5063772;28;20454;-75
2024/02/19 12:01:56;;;;;;;2.20;1.43;;;12.10;99.90;;;;;;5049859;28;20451;-74
2024/02/19 12:04:22;;;;;;;3.20;1.23;;;12.00;99.90;;;;;;5049709;28;20788;-73
2024/02/19 12:06:48;;;;;;;4.30;1.50;;;12.20;99.90;;;;;;5041950;28;20235;-75
2024/02/19 12:09:15;;;;;;;3.17;2.03;;;12.30;99.90;;;;;;5044750;28;20980;-75
2024/02/19 12:11:41;;;;;;;4.07;1.37;;;12.30;99.90;;;;;;5044831;28;20446;-75
2024/02/19 12:14:13;;;;;;;6.17;3.50;;;12.30;99.90;;;;;;5039103;28;20537;-72
2024/02/19 12:16:39;;;;;;;4.23;2.77;;;12.30;99.90;;;;;;5044591;28;20454;-74
2024/02/19 12:19:07;;;;;;;3.10;2.50;;;12.20;99.90;;;;;;5040738;28;20869;-75
2024/02/19 12:21:33;;;;;;;3.70;2.73;;;12.20;99.90;;;;;;5045266;28;20462;-75
2024/02/19 12:24:00;;;;;;;9.43;1.77;;;12.20;99.90;;;;;;5040602;28;20989;-75
2024/02/19 12:26:26;;;;;;;4.43;2.70;;;12.10;99.90;;;;;;5042211;28;20218;-73
2024/02/19 12:28:53;;;;;;;6.00;2.23;;;12.10;99.90;;;;;;5036705;28;20463;-75
2024/02/19 12:31:19;;;;;;;1.60;1.50;;;12.10;99.90;;;;;;5039387;28;20227;-74
2024/02/19 12:33:45;;;;;;;5.70;2.40;;;12.10;99.90;;;;;;5042104;28;20478;-75
2024/02/19 12:36:12;;;;;;;3.77;2.30;;;12.10;99.90;;;;;;5036528;28;20305;-75
2024/02/19 12:38:41;;;;;;;5.13;2.10;;;12.00;99.90;;;;;;5038003;28;20798;-74
2024/02/19 12:41:12;;;;;;;5.97;2.20;;;12.00;99.90;;;;;;5035890;28;20876;-75
2024/02/19 12:43:39;;;;;;;2.50;2.30;;;12.00;99.90;;;;;;5038416;28;20531;-74
2024/02/19 12:46:08;;;;;;;3.30;2.10;;;12.00;99.90;;;;;;5037844;28;20988;-75
2024/02/19 12:48:35;;;;;;;3.40;2.37;;;11.90;99.90;;;;;;5055140;28;20454;-75
2024/02/19 12:51:01;;;;;;;2.87;1.93;;;11.90;99.90;;;;;;5033456;28;20474;-75